sensor_id;sensor_type;location;lat;lon;timestamp;pressure;altitude;pressure_sealevel;temperature;humidity
21574;BME280;10948;48.706;9.258;2023-09-19T00:00:58;97390.50;;;17.60;100.00
21574;BME280;10948;48.706;9.258;2023-09-19T00:03:24;97388.72;;;17.51;100.00
21574;BME280;10948;48.706;9.258;2023-09-19T00:05:53;97388.06;;;17.49;100.00
21574;BME280;10948;48.706;9.258;2023-09-19T00:08:18;97401.88;;;17.51;100.00
21574;BME280;10948;48.706;9.258;2023-09-19T00:10:49;97409.50;;;17.54;100.00
21574;BME280;10948;48.706;9.258;2023-09-19T00:13:14;97412.84;;;17.47;100.00
21574;BME280;10948;48.706;9.258;2023-09-19T00:15:40;97410.09;;;17.48;100.00
21574;BME280;10948;48.706;9.258;2023-09-19T00:18:06;97410.78;;;17.31;100.00
21574;BME280;10948;48.706;9.258;2023-09-19T00:20:31;97416.34;;;17.38;100.00
21574;BME280;10948;48.706;9.258;2023-09-19T00:22:57;97421.59;;;17.47;100.00
21574;BME280;10948;48.706;9.258;2023-09-19T00:25:24;97420.47;;;17.40;100.00
21574;BME280;10948;48.706;9.258;2023-09-19T00:27:50;97418.97;;;17.47;100.00
21574;BME280;10948;48.706;9.258;2023-09-19T00:30:17;97427.50;;;17.59;100.00
21574;BME280;10948;48.706;9.258;2023-09-19T00:32:46;97426.97;;;17.46;100.00
21574;BME280;10948;48.706;9.258;2023-09-19T00:35:19;97429.59;;;17.36;100.00
21574;BME280;10948;48.706;9.258;2023-09-19T00:37:44;97434.03;;;17.45;100.00
21574;BME280;10948;48.706;9.258;2023-09-19T00:40:10;97428.09;;;17.43;100.00
21574;BME280;10948;48.706;9.258;2023-09-19T00:42:40;97424.03;;;17.58;100.00
21574;BME280;10948;48.706;9.258;2023-09-19T00:45:06;97427.91;;;17.64;100.00
21574;BME280;10948;48.706;9.258;2023-09-19T00:47:34;97418.25;;;17.45;100.00
21574;BME280;10948;48.706;9.258;2023-09-19T00:50:00;97422.38;;;17.57;100.00
21574;BME280;10948;48.706;9.258;2023-09-19T00:52:25;97428.09;;;17.43;100.00
21574;BME280;10948;48.706;9.258;2023-09-19T00:54:51;97433.91;;;17.47;100.00
21574;BME280;10948;48.706;9.258;2023-09-19T00:57:17;97427.75;;;17.65;100.00
21574;BME280;10948;48.706;9.258;2023-09-19T00:59:44;97441.09;;;17.54;100.00
21574;BME280;10948;48.706;9.258;2023-09-19T01:02:09;97437.88;;;17.60;100.00
21574;BME280;10948;48.706;9.258;2023-09-19T01:04:35;97438.84;;;17.59;100.00
21574;BME280;10948;48.706;9.258;2023-09-19T01:07:01;97429.41;;;17.66;100.00
21574;BME280;10948;48.706;9.258;2023-09-19T01:09:26;97439.56;;;17.61;100.00
21574;BME280;10948;48.706;9.258;2023-09-19T01:11:53;97433.56;;;17.59;100.00
21574;BME280;10948;48.706;9.258;2023-09-19T01:14:31;97442.19;;;17.61;100.00
21574;BME280;10948;48.706;9.258;2023-09-19T01:22:11;97443.97;;;17.61;100.00
21574;BME280;10948;48.706;9.258;2023-09-19T01:29:49;97438.19;;;17.48;100.00
21574;BME280;10948;48.706;9.258;2023-09-19T01:32:18;97440.69;;;17.49;100.00
21574;BME280;10948;48.706;9.258;2023-09-19T01:34:50;97448.69;;;17.57;100.00
21574;BME280;10948;48.706;9.258;2023-09-19T01:37:16;97448.69;;;17.57;100.00
21574;BME280;10948;48.706;9.258;2023-09-19T01:40:03;97446.75;;;17.50;100.00
21574;BME280;10948;48.706;9.258;2023-09-19T01:42:41;97453.13;;;17.57;100.00
21574;BME280;10948;48.706;9.258;2023-09-19T01:47:33;97457.44;;;17.48;100.00
21574;BME280;10948;48.706;9.258;2023-09-19T01:52:47;97468.34;;;17.53;100.00
21574;BME280;10948;48.706;9.258;2023-09-19T01:55:13;97471.72;;;17.46;100.00
21574;BME280;10948;48.706;9.258;2023-09-19T01:57:45;97474.22;;;17.47;100.00
21574;BME280;10948;48.706;9.258;2023-09-19T02:00:15;97461.16;;;17.55;100.00
21574;BME280;10948;48.706;9.258;2023-09-19T02:02:43;97466.03;;;17.50;100.00
21574;BME280;10948;48.706;9.258;2023-09-19T02:05:10;97459.66;;;17.43;100.00
21574;BME280;10948;48.706;9.258;2023-09-19T02:07:35;97468.94;;;17.47;100.00
21574;BME280;10948;48.706;9.258;2023-09-19T02:10:03;97470.59;;;17.48;100.00
21574;BME280;10948;48.706;9.258;2023-09-19T02:12:30;97480.84;;;17.42;100.00
21574;BME280;10948;48.706;9.258;2023-09-19T02:14:57;97480.56;;;17.35;100.00
21574;BME280;10948;48.706;9.258;2023-09-19T02:17:24;97481.53;;;17.34;100.00
21574;BME280;10948;48.706;9.258;2023-09-19T02:19:51;97488.88;;;17.40;100.00
21574;BME280;10948;48.706;9.258;2023-09-19T02:22:17;97490.25;;;17.35;100.00
21574;BME280;10948;48.706;9.258;2023-09-19T02:24:42;97489.69;;;17.22;100.00
21574;BME280;10948;48.706;9.258;2023-09-19T02:27:08;97489.00;;;17.29;100.00
21574;BME280;10948;48.706;9.258;2023-09-19T02:29:33;97495.81;;;17.41;100.00
21574;BME280;10948;48.706;9.258;2023-09-19T02:31:59;97488.88;;;17.40;100.00
21574;BME280;10948;48.706;9.258;2023-09-19T02:34:26;97495.38;;;17.36;100.00
21574;BME280;10948;48.706;9.258;2023-09-19T02:36:52;97491.91;;;17.36;100.00
21574;BME280;10948;48.706;9.258;2023-09-19T02:39:19;97491.09;;;17.26;100.00
21574;BME280;10948;48.706;9.258;2023-09-19T02:41:45;97506.19;;;17.14;100.00
21574;BME280;10948;48.706;9.258;2023-09-19T02:44:11;97501.50;;;17.18;100.00
21574;BME280;10948;48.706;9.258;2023-09-19T02:46:36;97499.41;;;17.21;100.00
21574;BME280;10948;48.706;9.258;2023-09-19T02:49:02;97498.31;;;17.14;100.00
21574;BME280;10948;48.706;9.258;2023-09-19T02:51:31;97500.50;;;17.09;100.00
21574;BME280;10948;48.706;9.258;2023-09-19T02:53:57;97498.56;;;17.02;100.00
21574;BME280;10948;48.706;9.258;2023-09-19T02:56:22;97507.69;;;16.89;100.00
21574;BME280;10948;48.706;9.258;2023-09-19T02:58:50;97505.75;;;16.91;100.00
21574;BME280;10948;48.706;9.258;2023-09-19T03:01:16;97502.44;;;16.89;100.00
21574;BME280;10948;48.706;9.258;2023-09-19T03:03:41;97500.94;;;16.96;100.00
21574;BME280;10948;48.706;9.258;2023-09-19T03:06:07;97500.78;;;17.16;100.00
21574;BME280;10948;48.706;9.258;2023-09-19T03:08:34;97506.31;;;17.03;100.00
21574;BME280;10948;48.706;9.258;2023-09-19T03:11:01;97525.97;;;17.09;100.00
21574;BME280;10948;48.706;9.258;2023-09-19T03:13:27;97516.28;;;17.09;100.00
21574;BME280;10948;48.706;9.258;2023-09-19T03:15:54;97516.53;;;17.06;100.00
21574;BME280;10948;48.706;9.258;2023-09-19T03:18:21;97512.97;;;17.08;100.00
21574;BME280;10948;48.706;9.258;2023-09-19T03:20:53;97523.06;;;17.02;100.00
21574;BME280;10948;48.706;9.258;2023-09-19T03:23:20;97519.34;;;17.14;100.00
21574;BME280;10948;48.706;9.258;2023-09-19T03:25:45;97506.59;;;17.19;100.00
21574;BME280;10948;48.706;9.258;2023-09-19T03:28:10;97515.19;;;17.21;100.00
21574;BME280;10948;48.706;9.258;2023-09-19T03:30:35;97510.75;;;17.12;100.00
21574;BME280;10948;48.706;9.258;2023-09-19T03:33:01;97515.44;;;17.18;100.00
21574;BME280;10948;48.706;9.258;2023-09-19T03:35:26;97523.22;;;17.10;100.00
21574;BME280;10948;48.706;9.258;2023-09-19T03:37:51;97519.59;;;17.11;100.00
21574;BME280;10948;48.706;9.258;2023-09-19T03:40:17;97518.63;;;17.12;100.00
21574;BME280;10948;48.706;9.258;2023-09-19T03:42:45;97508.94;;;17.22;100.00
21574;BME280;10948;48.706;9.258;2023-09-19T03:45:11;97513.66;;;17.28;100.00
21574;BME280;10948;48.706;9.258;2023-09-19T03:47:37;97510.31;;;17.26;100.00
21574;BME280;10948;48.706;9.258;2023-09-19T03:50:04;97508.78;;;17.24;100.00
21574;BME280;10948;48.706;9.258;2023-09-19T03:52:29;97497.34;;;17.15;100.00
21574;BME280;10948;48.706;9.258;2023-09-19T03:54:54;97498.69;;;17.19;100.00
21574;BME280;10948;48.706;9.258;2023-09-19T03:57:19;97509.94;;;17.21;100.00
21574;BME280;10948;48.706;9.258;2023-09-19T03:59:46;97506.59;;;17.19;100.00
21574;BME280;10948;48.706;9.258;2023-09-19T04:02:11;97510.19;;;17.18;100.00
21574;BME280;10948;48.706;9.258;2023-09-19T04:04:47;97511.84;;;17.19;100.00
21574;BME280;10948;48.706;9.258;2023-09-19T04:07:12;97502.72;;;17.23;100.00
21574;BME280;10948;48.706;9.258;2023-09-19T04:09:37;97498.84;;;17.18;100.00
21574;BME280;10948;48.706;9.258;2023-09-19T04:12:03;97510.47;;;17.15;100.00
21574;BME280;10948;48.706;9.258;2023-09-19T04:14:28;97512.13;;;17.16;100.00
21574;BME280;10948;48.706;9.258;2023-09-19T04:16:54;97516.00;;;17.12;100.00
21574;BME280;10948;48.706;9.258;2023-09-19T04:19:19;97516.84;;;17.03;100.00
21574;BME280;10948;48.706;9.258;2023-09-19T04:21:46;97520.44;;;17.02;100.00
21574;BME280;10948;48.706;9.258;2023-09-19T04:24:11;97515.16;;;16.93;100.00
21574;BME280;10948;48.706;9.258;2023-09-19T04:26:38;97512.41;;;16.95;100.00
21574;BME280;10948;48.706;9.258;2023-09-19T04:29:03;97513.66;;;16.91;100.00
21574;BME280;10948;48.706;9.258;2023-09-19T04:31:29;97523.19;;;16.92;100.00
21574;BME280;10948;48.706;9.258;2023-09-19T04:33:55;97528.16;;;16.85;100.00
21574;BME280;10948;48.706;9.258;2023-09-19T04:36:20;97529.28;;;16.83;100.00
21574;BME280;10948;48.706;9.258;2023-09-19T04:38:46;97530.50;;;16.79;100.00
21574;BME280;10948;48.706;9.258;2023-09-19T04:41:11;97528.84;;;16.78;100.00
21574;BME280;10948;48.706;9.258;2023-09-19T04:43:36;97529.81;;;16.77;100.00
21574;BME280;10948;48.706;9.258;2023-09-19T04:46:02;97527.06;;;16.88;100.00
21574;BME280;10948;48.706;9.258;2023-09-19T04:48:28;97531.06;;;16.92;100.00
21574;BME280;10948;48.706;9.258;2023-09-19T04:50:54;97523.19;;;16.92;100.00
21574;BME280;10948;48.706;9.258;2023-09-19T04:53:19;97525.13;;;16.90;100.00
21574;BME280;10948;48.706;9.258;2023-09-19T04:55:49;97529.72;;;16.88;100.00
21574;BME280;10948;48.706;9.258;2023-09-19T04:58:14;97537.88;;;17.03;100.00
21574;BME280;10948;48.706;9.258;2023-09-19T05:00:39;97543.28;;;17.11;100.00
21574;BME280;10948;48.706;9.258;2023-09-19T05:03:04;97541.88;;;17.17;100.00
21574;BME280;10948;48.706;9.258;2023-09-19T05:05:31;97550.34;;;17.11;100.00
21574;BME280;10948;48.706;9.258;2023-09-19T05:07:56;97552.69;;;17.14;100.00
21574;BME280;10948;48.706;9.258;2023-09-19T05:10:21;97545.91;;;17.11;100.00
21574;BME280;10948;48.706;9.258;2023-09-19T05:12:47;97562.94;;;17.26;100.00
21574;BME280;10948;48.706;9.258;2023-09-19T05:15:13;97572.75;;;17.15;100.00
21574;BME280;10948;48.706;9.258;2023-09-19T05:17:48;97571.50;;;17.09;100.00
21574;BME280;10948;48.706;9.258;2023-09-19T05:20:14;97580.78;;;17.13;100.00
21574;BME280;10948;48.706;9.258;2023-09-19T05:23:00;97580.38;;;17.18;100.00
21574;BME280;10948;48.706;9.258;2023-09-19T05:25:27;97582.44;;;17.24;100.00
21574;BME280;10948;48.706;9.258;2023-09-19T05:27:55;97583.84;;;17.18;100.00
21574;BME280;10948;48.706;9.258;2023-09-19T05:30:22;97598.50;;;17.11;100.00
21574;BME280;10948;48.706;9.258;2023-09-19T05:32:47;97589.06;;;17.09;100.00
21574;BME280;10948;48.706;9.258;2023-09-19T05:35:13;97592.13;;;17.04;100.00
21574;BME280;10948;48.706;9.258;2023-09-19T05:37:38;97591.00;;;16.98;100.00
21574;BME280;10948;48.706;9.258;2023-09-19T05:40:03;97591.44;;;17.12;100.00
21574;BME280;10948;48.706;9.258;2023-09-19T05:42:35;97588.81;;;17.12;100.00
21574;BME280;10948;48.706;9.258;2023-09-19T05:45:00;97595.19;;;17.09;100.00
21574;BME280;10948;48.706;9.258;2023-09-19T05:47:26;97594.09;;;17.21;100.00
21574;BME280;10948;48.706;9.258;2023-09-19T05:49:51;97601.69;;;17.24;100.00
21574;BME280;10948;48.706;9.258;2023-09-19T05:52:17;97600.72;;;17.25;100.00
21574;BME280;10948;48.706;9.258;2023-09-19T05:54:42;97605.72;;;17.28;100.00
21574;BME280;10948;48.706;9.258;2023-09-19T05:57:08;97606.84;;;17.26;100.00
21574;BME280;10948;48.706;9.258;2023-09-19T05:59:33;97609.66;;;17.43;100.00
21574;BME280;10948;48.706;9.258;2023-09-19T06:01:59;97609.91;;;17.50;100.00
21574;BME280;10948;48.706;9.258;2023-09-19T06:04:25;97616.84;;;17.70;100.00
21574;BME280;10948;48.706;9.258;2023-09-19T06:06:50;97617.53;;;17.81;100.00
21574;BME280;10948;48.706;9.258;2023-09-19T06:09:16;97626.00;;;17.94;100.00
21574;BME280;10948;48.706;9.258;2023-09-19T06:11:42;97625.69;;;18.07;100.00
21574;BME280;10948;48.706;9.258;2023-09-19T06:14:07;97629.84;;;17.90;100.00
21574;BME280;10948;48.706;9.258;2023-09-19T06:16:35;97643.03;;;17.71;100.00
21574;BME280;10948;48.706;9.258;2023-09-19T06:19:00;97650.66;;;17.65;100.00
21574;BME280;10948;48.706;9.258;2023-09-19T06:21:26;97658.81;;;17.52;100.00
21574;BME280;10948;48.706;9.258;2023-09-19T06:23:52;97660.88;;;17.39;100.00
21574;BME280;10948;48.706;9.258;2023-09-19T06:26:19;97663.06;;;17.34;100.00
21574;BME280;10948;48.706;9.258;2023-09-19T06:28:44;97667.78;;;17.31;100.00
21574;BME280;10948;48.706;9.258;2023-09-19T06:31:09;97665.53;;;17.26;100.00
21574;BME280;10948;48.706;9.258;2023-09-19T06:33:38;97675.47;;;17.23;100.00
21574;BME280;10948;48.706;9.258;2023-09-19T06:36:08;97665.53;;;17.26;100.00
21574;BME280;10948;48.706;9.258;2023-09-19T06:38:36;97673.59;;;17.34;100.00
21574;BME280;10948;48.706;9.258;2023-09-19T06:41:02;97672.50;;;17.37;100.00
21574;BME280;10948;48.706;9.258;2023-09-19T06:43:32;97671.66;;;17.36;100.00
21574;BME280;10948;48.706;9.258;2023-09-19T06:45:59;97680.13;;;17.40;100.00
21574;BME280;10948;48.706;9.258;2023-09-19T06:48:25;97677.44;;;17.21;100.00
21574;BME280;10948;48.706;9.258;2023-09-19T06:50:54;97675.00;;;17.38;100.00
21574;BME280;10948;48.706;9.258;2023-09-19T06:53:20;97678.91;;;17.44;100.00
21574;BME280;10948;48.706;9.258;2023-09-19T06:55:45;97678.91;;;17.91;100.00
21574;BME280;10948;48.706;9.258;2023-09-19T06:58:10;97677.69;;;18.70;100.00
21574;BME280;10948;48.706;9.258;2023-09-19T07:00:36;97683.25;;;19.57;100.00
21574;BME280;10948;48.706;9.258;2023-09-19T07:03:03;97684.72;;;19.25;100.00
21574;BME280;10948;48.706;9.258;2023-09-19T07:05:32;97686.22;;;19.89;100.00
21574;BME280;10948;48.706;9.258;2023-09-19T07:07:58;97683.63;;;21.09;100.00
21574;BME280;10948;48.706;9.258;2023-09-19T07:10:24;97686.75;;;22.43;97.30
21574;BME280;10948;48.706;9.258;2023-09-19T07:12:57;97687.34;;;22.85;93.68
21574;BME280;10948;48.706;9.258;2023-09-19T07:15:23;97685.94;;;22.51;93.65
21574;BME280;10948;48.706;9.258;2023-09-19T07:17:50;97697.50;;;22.10;93.75
21574;BME280;10948;48.706;9.258;2023-09-19T07:20:15;97701.75;;;21.29;98.14
21574;BME280;10948;48.706;9.258;2023-09-19T07:22:41;97704.94;;;21.41;100.00
21574;BME280;10948;48.706;9.258;2023-09-19T07:25:07;97705.91;;;20.98;100.00
21574;BME280;10948;48.706;9.258;2023-09-19T07:27:33;97704.75;;;20.75;100.00
21574;BME280;10948;48.706;9.258;2023-09-19T07:29:58;97713.22;;;20.79;100.00
21574;BME280;10948;48.706;9.258;2023-09-19T07:32:24;97715.25;;;20.42;100.00
21574;BME280;10948;48.706;9.258;2023-09-19T07:34:49;97713.50;;;20.76;100.00
21574;BME280;10948;48.706;9.258;2023-09-19T07:37:15;97705.19;;;20.88;100.00
21574;BME280;10948;48.706;9.258;2023-09-19T07:39:40;97712.59;;;21.10;100.00
21574;BME280;10948;48.706;9.258;2023-09-19T07:42:06;97718.69;;;21.94;97.85
21574;BME280;10948;48.706;9.258;2023-09-19T07:44:32;97717.75;;;22.51;95.39
21574;BME280;10948;48.706;9.258;2023-09-19T07:46:57;97713.00;;;23.85;88.34
21574;BME280;10948;48.706;9.258;2023-09-19T07:49:22;97718.72;;;24.50;81.83
21574;BME280;10948;48.706;9.258;2023-09-19T07:51:48;97725.28;;;25.57;75.74
21574;BME280;10948;48.706;9.258;2023-09-19T07:54:13;97732.28;;;25.58;72.44
21574;BME280;10948;48.706;9.258;2023-09-19T07:56:40;97728.81;;;26.98;67.82
21574;BME280;10948;48.706;9.258;2023-09-19T07:59:05;97729.94;;;27.44;65.05
21574;BME280;10948;48.706;9.258;2023-09-19T08:01:30;97728.97;;;26.69;66.76
21574;BME280;10948;48.706;9.258;2023-09-19T08:03:56;97733.41;;;27.10;66.67
21574;BME280;10948;48.706;9.258;2023-09-19T08:06:22;97738.66;;;27.59;65.47
21574;BME280;10948;48.706;9.258;2023-09-19T08:08:50;97740.81;;;28.36;62.02
21574;BME280;10948;48.706;9.258;2023-09-19T08:11:16;97740.84;;;29.97;56.80
21574;BME280;10948;48.706;9.258;2023-09-19T08:13:46;97750.94;;;30.77;54.66
21574;BME280;10948;48.706;9.258;2023-09-19T08:16:14;97745.16;;;30.42;54.71
21574;BME280;10948;48.706;9.258;2023-09-19T08:18:47;97748.97;;;30.90;55.52
21574;BME280;10948;48.706;9.258;2023-09-19T08:21:13;97746.00;;;31.83;52.88
21574;BME280;10948;48.706;9.258;2023-09-19T08:23:40;97744.34;;;31.22;52.92
21574;BME280;10948;48.706;9.258;2023-09-19T08:26:05;97748.16;;;30.90;53.24
21574;BME280;10948;48.706;9.258;2023-09-19T08:28:34;97740.50;;;30.56;54.68
21574;BME280;10948;48.706;9.258;2023-09-19T08:31:03;97742.72;;;29.14;55.87
21574;BME280;10948;48.706;9.258;2023-09-19T08:33:32;97756.16;;;30.72;55.46
21574;BME280;10948;48.706;9.258;2023-09-19T08:35:58;97752.91;;;31.54;50.41
21574;BME280;10948;48.706;9.258;2023-09-19T08:38:23;97750.25;;;25.85;64.32
21574;BME280;10948;48.706;9.258;2023-09-19T08:40:49;97761.66;;;24.47;72.93
21574;BME280;10948;48.706;9.258;2023-09-19T08:43:14;97759.44;;;23.75;72.36
21574;BME280;10948;48.706;9.258;2023-09-19T08:45:40;97763.63;;;23.23;73.99
21574;BME280;10948;48.706;9.258;2023-09-19T08:50:31;97759.00;;;22.37;77.94
21574;BME280;10948;48.706;9.258;2023-09-19T08:53:00;97755.06;;;22.49;78.36
21574;BME280;10948;48.706;9.258;2023-09-19T08:55:29;97751.91;;;22.54;77.32
21574;BME280;10948;48.706;9.258;2023-09-19T08:58:01;97760.59;;;21.90;78.34
21574;BME280;10948;48.706;9.258;2023-09-19T09:00:28;97764.88;;;21.75;81.74
21574;BME280;10948;48.706;9.258;2023-09-19T09:02:55;97761.44;;;22.07;81.83
21574;BME280;10948;48.706;9.258;2023-09-19T09:05:22;97757.72;;;22.49;80.13
21574;BME280;10948;48.706;9.258;2023-09-19T09:07:52;97758.31;;;22.03;80.22
21574;BME280;10948;48.706;9.258;2023-09-19T09:10:20;97762.97;;;23.21;77.06
21574;BME280;10948;48.706;9.258;2023-09-19T09:12:48;97765.03;;;23.88;70.52
21574;BME280;10948;48.706;9.258;2023-09-19T09:15:13;97762.03;;;25.03;69.60
21574;BME280;10948;48.706;9.258;2023-09-19T09:17:41;97759.91;;;25.13;66.60
21574;BME280;10948;48.706;9.258;2023-09-19T09:20:08;97767.19;;;25.05;67.61
21574;BME280;10948;48.706;9.258;2023-09-19T09:22:35;97772.19;;;24.63;68.41
21574;BME280;10948;48.706;9.258;2023-09-19T09:25:01;97768.91;;;24.61;67.44
21574;BME280;10948;48.706;9.258;2023-09-19T09:27:29;97767.06;;;24.98;66.28
21574;BME280;10948;48.706;9.258;2023-09-19T09:29:55;97776.22;;;23.67;67.45
21574;BME280;10948;48.706;9.258;2023-09-19T09:32:24;97770.31;;;22.79;69.79
21574;BME280;10948;48.706;9.258;2023-09-19T09:34:51;97779.03;;;23.36;68.65
21574;BME280;10948;48.706;9.258;2023-09-19T09:37:16;97768.31;;;22.81;68.75
21574;BME280;10948;48.706;9.258;2023-09-19T09:39:54;97767.22;;;23.38;66.56
21574;BME280;10948;48.706;9.258;2023-09-19T09:42:31;97768.16;;;22.75;66.87
21574;BME280;10948;48.706;9.258;2023-09-19T09:47:48;97779.69;;;23.76;64.94
21574;BME280;10948;48.706;9.258;2023-09-19T09:50:33;97781.06;;;23.18;65.22
21574;BME280;10948;48.706;9.258;2023-09-19T09:56:02;97786.16;;;22.23;66.83
21574;BME280;10948;48.706;9.258;2023-09-19T09:58:31;97782.84;;;22.13;67.46
21574;BME280;10948;48.706;9.258;2023-09-19T10:00:58;97782.53;;;22.32;68.19
21574;BME280;10948;48.706;9.258;2023-09-19T10:03:40;97787.22;;;22.70;67.54
21574;BME280;10948;48.706;9.258;2023-09-19T10:06:12;97787.34;;;23.09;64.85
21574;BME280;10948;48.706;9.258;2023-09-19T10:09:06;97786.78;;;23.53;63.30
21574;BME280;10948;48.706;9.258;2023-09-19T10:12:05;97779.16;;;26.17;55.92
21574;BME280;10948;48.706;9.258;2023-09-19T10:14:33;97770.31;;;25.23;57.81
21574;BME280;10948;48.706;9.258;2023-09-19T10:17:00;97778.06;;;25.47;57.86
21574;BME280;10948;48.706;9.258;2023-09-19T10:19:52;97775.47;;;24.73;59.18
21574;BME280;10948;48.706;9.258;2023-09-19T10:22:17;97773.00;;;24.86;58.70
21574;BME280;10948;48.706;9.258;2023-09-19T10:24:46;97775.47;;;23.59;60.48
21574;BME280;10948;48.706;9.258;2023-09-19T10:27:11;97762.06;;;25.47;58.20
21574;BME280;10948;48.706;9.258;2023-09-19T10:29:38;97762.66;;;26.49;52.68
21574;BME280;10948;48.706;9.258;2023-09-19T10:32:04;97766.66;;;25.24;56.07
21574;BME280;10948;48.706;9.258;2023-09-19T10:34:34;97764.66;;;24.44;57.86
21574;BME280;10948;48.706;9.258;2023-09-19T10:37:00;97752.78;;;27.46;54.10
21574;BME280;10948;48.706;9.258;2023-09-19T10:39:30;60905.78;;;-139.15;100.00
21574;BME280;10948;48.706;9.258;2023-09-19T10:41:56;97755.94;;;27.63;49.84
21574;BME280;10948;48.706;9.258;2023-09-19T10:44:27;97758.19;;;27.19;49.37
21574;BME280;10948;48.706;9.258;2023-09-19T10:46:56;97755.00;;;27.77;49.98
21574;BME280;10948;48.706;9.258;2023-09-19T10:49:22;97759.28;;;27.71;49.22
21574;BME280;10948;48.706;9.258;2023-09-19T10:51:47;97768.47;;;28.63;48.50
21574;BME280;10948;48.706;9.258;2023-09-19T10:54:15;97764.78;;;29.35;48.33
21574;BME280;10948;48.706;9.258;2023-09-19T10:56:43;97762.28;;;29.34;49.26
21574;BME280;10948;48.706;9.258;2023-09-19T11:01:41;97768.78;;;27.74;50.07
21574;BME280;10948;48.706;9.258;2023-09-19T11:09:55;97753.56;;;28.34;50.15
21574;BME280;10948;48.706;9.258;2023-09-19T11:15:06;97746.03;;;28.64;48.87
21574;BME280;10948;48.706;9.258;2023-09-19T11:17:37;97750.97;;;28.67;48.76
21574;BME280;10948;48.706;9.258;2023-09-19T11:30:33;97730.94;;;28.89;46.45
21574;BME280;10948;48.706;9.258;2023-09-19T11:43:51;97741.94;;;27.61;49.29
21574;BME280;10948;48.706;9.258;2023-09-19T11:46:17;97735.69;;;28.61;47.68
21574;BME280;10948;48.706;9.258;2023-09-19T11:48:47;97732.84;;;28.95;48.23
21574;BME280;10948;48.706;9.258;2023-09-19T11:51:15;97727.06;;;28.85;47.77
21574;BME280;10948;48.706;9.258;2023-09-19T11:53:44;97733.44;;;28.90;48.01
21574;BME280;10948;48.706;9.258;2023-09-19T11:56:10;97726.13;;;27.25;49.90
21574;BME280;10948;48.706;9.258;2023-09-19T11:58:37;97733.16;;;28.27;48.38
21574;BME280;10948;48.706;9.258;2023-09-19T12:01:02;97734.06;;;28.86;47.83
21574;BME280;10948;48.706;9.258;2023-09-19T12:03:33;97731.59;;;28.52;47.09
21574;BME280;10948;48.706;9.258;2023-09-19T12:05:59;97735.22;;;28.25;48.10
21574;BME280;10948;48.706;9.258;2023-09-19T12:08:27;97726.22;;;28.52;49.42
21574;BME280;10948;48.706;9.258;2023-09-19T12:10:53;97718.81;;;28.67;48.88
21574;BME280;10948;48.706;9.258;2023-09-19T12:13:20;97723.25;;;29.64;47.53
21574;BME280;10948;48.706;9.258;2023-09-19T12:15:46;97721.09;;;30.23;45.91
21574;BME280;10948;48.706;9.258;2023-09-19T12:18:25;97712.16;;;30.29;45.12
21574;BME280;10948;48.706;9.258;2023-09-19T12:20:51;97713.31;;;29.64;46.30
21574;BME280;10948;48.706;9.258;2023-09-19T12:23:17;97711.72;;;29.57;46.15
21574;BME280;10948;48.706;9.258;2023-09-19T12:25:43;97714.09;;;29.78;45.76
21574;BME280;10948;48.706;9.258;2023-09-19T12:28:18;97707.44;;;29.87;46.80
21574;BME280;10948;48.706;9.258;2023-09-19T12:30:43;97707.25;;;30.26;45.91
21574;BME280;10948;48.706;9.258;2023-09-19T12:33:18;97693.88;;;29.69;45.79
21574;BME280;10948;48.706;9.258;2023-09-19T12:35:44;97691.53;;;29.22;47.71
21574;BME280;10948;48.706;9.258;2023-09-19T12:38:10;97700.47;;;30.48;46.30
21574;BME280;10948;48.706;9.258;2023-09-19T12:40:36;60905.78;;;-139.15;100.00
21574;BME280;10948;48.706;9.258;2023-09-19T12:43:03;97700.34;;;29.99;46.63
21574;BME280;10948;48.706;9.258;2023-09-19T12:45:32;97690.03;;;29.96;46.28
21574;BME280;10948;48.706;9.258;2023-09-19T12:50:58;97691.69;;;29.40;46.21
21574;BME280;10948;48.706;9.258;2023-09-19T12:53:25;97679.94;;;29.41;47.66
21574;BME280;10948;48.706;9.258;2023-09-19T12:55:57;97679.38;;;28.93;47.35
21574;BME280;10948;48.706;9.258;2023-09-19T12:58:23;97683.34;;;28.65;46.81
21574;BME280;10948;48.706;9.258;2023-09-19T13:00:48;97675.00;;;29.31;47.22
21574;BME280;10948;48.706;9.258;2023-09-19T13:03:28;97679.59;;;29.18;47.75
21574;BME280;10948;48.706;9.258;2023-09-19T13:16:06;97661.69;;;28.99;47.55
21574;BME280;10948;48.706;9.258;2023-09-19T13:18:44;97669.31;;;28.82;48.26
21574;BME280;10948;48.706;9.258;2023-09-19T13:21:10;97664.19;;;29.00;48.47
21574;BME280;10948;48.706;9.258;2023-09-19T13:23:37;97669.09;;;29.03;48.40
21574;BME280;10948;48.706;9.258;2023-09-19T13:26:03;97671.81;;;28.64;48.92
21574;BME280;10948;48.706;9.258;2023-09-19T13:28:30;97671.41;;;28.48;49.15
21574;BME280;10948;48.706;9.258;2023-09-19T13:30:56;97663.97;;;28.63;48.79
21574;BME280;10948;48.706;9.258;2023-09-19T13:33:22;97665.41;;;28.39;48.58
21574;BME280;10948;48.706;9.258;2023-09-19T13:35:47;97674.19;;;28.01;49.86
21574;BME280;10948;48.706;9.258;2023-09-19T13:38:13;97668.00;;;28.00;49.51
21574;BME280;10948;48.706;9.258;2023-09-19T13:40:39;97670.88;;;27.86;49.90
21574;BME280;10948;48.706;9.258;2023-09-19T13:43:06;97669.25;;;27.98;50.40
21574;BME280;10948;48.706;9.258;2023-09-19T13:45:32;97663.81;;;27.72;50.35
21574;BME280;10948;48.706;9.258;2023-09-19T13:47:57;97659.59;;;27.50;50.42
21574;BME280;10948;48.706;9.258;2023-09-19T13:50:23;97657.88;;;27.29;50.60
21574;BME280;10948;48.706;9.258;2023-09-19T13:52:50;97651.75;;;27.42;49.60
21574;BME280;10948;48.706;9.258;2023-09-19T13:55:19;97656.31;;;27.48;49.77
21574;BME280;10948;48.706;9.258;2023-09-19T13:57:47;97654.47;;;27.55;49.26
21574;BME280;10948;48.706;9.258;2023-09-19T14:00:17;97643.06;;;27.27;50.00
21574;BME280;10948;48.706;9.258;2023-09-19T14:02:43;97648.03;;;26.20;51.34
21574;BME280;10948;48.706;9.258;2023-09-19T14:05:10;97639.50;;;25.89;51.30